sensor_id;sensor_type;location;lat;lon;timestamp;P1;durP1;ratioP1;P2;durP2;ratioP2
9160;SDS011;4615;51.340;8.288;2023-02-04T00:02:18;27.08;;;6.65;;
9160;SDS011;4615;51.340;8.288;2023-02-04T00:04:46;23.75;;;6.60;;
9160;SDS011;4615;51.340;8.288;2023-02-04T00:07:12;25.33;;;5.93;;
9160;SDS011;4615;51.340;8.288;2023-02-04T00:09:40;32.07;;;7.30;;
9160;SDS011;4615;51.340;8.288;2023-02-04T00:12:06;29.45;;;6.95;;
9160;SDS011;4615;51.340;8.288;2023-02-04T00:14:34;31.50;;;7.22;;
9160;SDS011;4615;51.340;8.288;2023-02-04T00:17:01;25.92;;;6.40;;
9160;SDS011;4615;51.340;8.288;2023-02-04T00:19:27;27.77;;;6.20;;
9160;SDS011;4615;51.340;8.288;2023-02-04T00:21:55;30.55;;;6.35;;
9160;SDS011;4615;51.340;8.288;2023-02-04T00:24:21;27.33;;;6.78;;
9160;SDS011;4615;51.340;8.288;2023-02-04T00:26:48;27.77;;;6.65;;
9160;SDS011;4615;51.340;8.288;2023-02-04T00:29:14;24.60;;;6.20;;
9160;SDS011;4615;51.340;8.288;2023-02-04T00:31:40;27.92;;;6.78;;
9160;SDS011;4615;51.340;8.288;2023-02-04T00:34:07;25.00;;;6.50;;
9160;SDS011;4615;51.340;8.288;2023-02-04T00:36:33;26.67;;;6.78;;
9160;SDS011;4615;51.340;8.288;2023-02-04T00:39:01;27.60;;;6.78;;
9160;SDS011;4615;51.340;8.288;2023-02-04T00:41:27;30.55;;;6.88;;
9160;SDS011;4615;51.340;8.288;2023-02-04T00:43:54;29.58;;;6.80;;
9160;SDS011;4615;51.340;8.288;2023-02-04T00:46:20;29.10;;;6.93;;
9160;SDS011;4615;51.340;8.288;2023-02-04T00:48:46;25.55;;;6.50;;
9160;SDS011;4615;51.340;8.288;2023-02-04T00:51:13;27.13;;;6.83;;
9160;SDS011;4615;51.340;8.288;2023-02-04T00:53:39;28.33;;;7.30;;
9160;SDS011;4615;51.340;8.288;2023-02-04T00:56:07;30.83;;;7.38;;
9160;SDS011;4615;51.340;8.288;2023-02-04T00:58:33;30.73;;;6.78;;
9160;SDS011;4615;51.340;8.288;2023-02-04T01:01:00;29.38;;;6.88;;
9160;SDS011;4615;51.340;8.288;2023-02-04T01:03:26;27.92;;;6.75;;
9160;SDS011;4615;51.340;8.288;2023-02-04T01:05:53;28.17;;;7.22;;
9160;SDS011;4615;51.340;8.288;2023-02-04T01:08:19;28.15;;;6.80;;
9160;SDS011;4615;51.340;8.288;2023-02-04T01:10:46;26.43;;;6.90;;
9160;SDS011;4615;51.340;8.288;2023-02-04T01:13:13;31.52;;;6.95;;
9160;SDS011;4615;51.340;8.288;2023-02-04T01:15:40;28.73;;;7.20;;
9160;SDS011;4615;51.340;8.288;2023-02-04T01:18:06;28.33;;;7.35;;
9160;SDS011;4615;51.340;8.288;2023-02-04T01:20:32;31.83;;;7.38;;
9160;SDS011;4615;51.340;8.288;2023-02-04T01:22:59;28.13;;;7.32;;
9160;SDS011;4615;51.340;8.288;2023-02-04T01:25:25;27.33;;;6.53;;
9160;SDS011;4615;51.340;8.288;2023-02-04T01:27:52;26.08;;;7.13;;
9160;SDS011;4615;51.340;8.288;2023-02-04T01:30:20;26.00;;;7.67;;
9160;SDS011;4615;51.340;8.288;2023-02-04T01:32:46;29.77;;;7.68;;
9160;SDS011;4615;51.340;8.288;2023-02-04T01:35:13;34.13;;;7.80;;
9160;SDS011;4615;51.340;8.288;2023-02-04T01:37:39;27.08;;;7.82;;
9160;SDS011;4615;51.340;8.288;2023-02-04T01:40:06;29.80;;;7.50;;
9160;SDS011;4615;51.340;8.288;2023-02-04T01:42:33;30.52;;;7.40;;
9160;SDS011;4615;51.340;8.288;2023-02-04T01:44:59;32.83;;;8.37;;
9160;SDS011;4615;51.340;8.288;2023-02-04T01:47:27;28.90;;;7.85;;
9160;SDS011;4615;51.340;8.288;2023-02-04T01:49:53;32.63;;;8.95;;
9160;SDS011;4615;51.340;8.288;2023-02-04T01:52:20;30.00;;;7.45;;
9160;SDS011;4615;51.340;8.288;2023-02-04T01:54:47;26.50;;;6.53;;
9160;SDS011;4615;51.340;8.288;2023-02-04T01:57:14;28.77;;;6.80;;
9160;SDS011;4615;51.340;8.288;2023-02-04T01:59:41;30.30;;;7.00;;
9160;SDS011;4615;51.340;8.288;2023-02-04T02:04:56;29.02;;;6.80;;
9160;SDS011;4615;51.340;8.288;2023-02-04T02:07:23;33.13;;;7.72;;
9160;SDS011;4615;51.340;8.288;2023-02-04T02:09:49;33.38;;;7.82;;
9160;SDS011;4615;51.340;8.288;2023-02-04T02:12:16;32.58;;;8.43;;
9160;SDS011;4615;51.340;8.288;2023-02-04T02:14:42;35.65;;;8.30;;
9160;SDS011;4615;51.340;8.288;2023-02-04T02:17:08;35.03;;;7.70;;
9160;SDS011;4615;51.340;8.288;2023-02-04T02:19:35;31.25;;;7.97;;
9160;SDS011;4615;51.340;8.288;2023-02-04T02:22:05;34.40;;;7.85;;
9160;SDS011;4615;51.340;8.288;2023-02-04T02:24:35;30.52;;;8.25;;
9160;SDS011;4615;51.340;8.288;2023-02-04T02:27:02;35.63;;;8.88;;
9160;SDS011;4615;51.340;8.288;2023-02-04T02:29:31;36.75;;;7.85;;
9160;SDS011;4615;51.340;8.288;2023-02-04T02:31:57;33.63;;;8.68;;
9160;SDS011;4615;51.340;8.288;2023-02-04T02:34:24;32.20;;;7.80;;
9160;SDS011;4615;51.340;8.288;2023-02-04T02:36:51;35.80;;;8.15;;
9160;SDS011;4615;51.340;8.288;2023-02-04T02:39:18;32.67;;;8.45;;
9160;SDS011;4615;51.340;8.288;2023-02-04T02:41:46;32.33;;;7.75;;
9160;SDS011;4615;51.340;8.288;2023-02-04T02:44:12;38.20;;;8.85;;
9160;SDS011;4615;51.340;8.288;2023-02-04T02:46:39;29.65;;;8.07;;
9160;SDS011;4615;51.340;8.288;2023-02-04T02:49:05;33.25;;;8.38;;
9160;SDS011;4615;51.340;8.288;2023-02-04T02:51:32;28.30;;;7.03;;
9160;SDS011;4615;51.340;8.288;2023-02-04T02:53:58;30.45;;;7.60;;
9160;SDS011;4615;51.340;8.288;2023-02-04T02:56:25;35.90;;;8.05;;
9160;SDS011;4615;51.340;8.288;2023-02-04T02:58:52;30.10;;;7.43;;
9160;SDS011;4615;51.340;8.288;2023-02-04T03:01:19;32.10;;;8.33;;
9160;SDS011;4615;51.340;8.288;2023-02-04T03:03:46;36.83;;;8.77;;
9160;SDS011;4615;51.340;8.288;2023-02-04T03:06:14;29.60;;;7.07;;
9160;SDS011;4615;51.340;8.288;2023-02-04T03:08:42;36.35;;;8.65;;
9160;SDS011;4615;51.340;8.288;2023-02-04T03:11:09;32.70;;;7.60;;
9160;SDS011;4615;51.340;8.288;2023-02-04T03:13:35;35.10;;;7.75;;
9160;SDS011;4615;51.340;8.288;2023-02-04T03:16:04;31.23;;;7.53;;
9160;SDS011;4615;51.340;8.288;2023-02-04T03:18:32;30.73;;;7.63;;
9160;SDS011;4615;51.340;8.288;2023-02-04T03:20:59;35.75;;;7.55;;
9160;SDS011;4615;51.340;8.288;2023-02-04T03:23:25;26.58;;;6.88;;
9160;SDS011;4615;51.340;8.288;2023-02-04T03:25:52;31.48;;;7.18;;
9160;SDS011;4615;51.340;8.288;2023-02-04T03:28:19;29.27;;;7.10;;
9160;SDS011;4615;51.340;8.288;2023-02-04T03:30:45;29.40;;;7.18;;
9160;SDS011;4615;51.340;8.288;2023-02-04T03:33:21;30.17;;;7.38;;
9160;SDS011;4615;51.340;8.288;2023-02-04T03:35:48;34.65;;;7.15;;
9160;SDS011;4615;51.340;8.288;2023-02-04T03:38:15;29.43;;;7.93;;
9160;SDS011;4615;51.340;8.288;2023-02-04T03:40:41;28.70;;;6.95;;
9160;SDS011;4615;51.340;8.288;2023-02-04T03:43:08;26.67;;;6.38;;
9160;SDS011;4615;51.340;8.288;2023-02-04T03:45:34;28.77;;;7.28;;
9160;SDS011;4615;51.340;8.288;2023-02-04T03:48:01;34.45;;;7.60;;
9160;SDS011;4615;51.340;8.288;2023-02-04T03:50:28;34.03;;;7.50;;
9160;SDS011;4615;51.340;8.288;2023-02-04T03:52:55;31.42;;;7.93;;
9160;SDS011;4615;51.340;8.288;2023-02-04T03:55:21;27.75;;;6.93;;
9160;SDS011;4615;51.340;8.288;2023-02-04T03:57:48;29.20;;;7.22;;
9160;SDS011;4615;51.340;8.288;2023-02-04T04:00:14;29.48;;;6.70;;
9160;SDS011;4615;51.340;8.288;2023-02-04T04:02:40;29.45;;;7.45;;
9160;SDS011;4615;51.340;8.288;2023-02-04T04:05:08;28.02;;;6.95;;
9160;SDS011;4615;51.340;8.288;2023-02-04T04:07:36;29.92;;;7.50;;
9160;SDS011;4615;51.340;8.288;2023-02-04T04:10:02;28.30;;;6.78;;
9160;SDS011;4615;51.340;8.288;2023-02-04T04:12:29;29.02;;;6.68;;
9160;SDS011;4615;51.340;8.288;2023-02-04T04:14:55;27.17;;;6.78;;
9160;SDS011;4615;51.340;8.288;2023-02-04T04:17:22;28.17;;;7.40;;
9160;SDS011;4615;51.340;8.288;2023-02-04T04:19:48;33.17;;;7.32;;
9160;SDS011;4615;51.340;8.288;2023-02-04T04:22:14;33.90;;;7.47;;
9160;SDS011;4615;51.340;8.288;2023-02-04T04:24:45;30.85;;;7.10;;
9160;SDS011;4615;51.340;8.288;2023-02-04T04:27:11;31.00;;;7.30;;
9160;SDS011;4615;51.340;8.288;2023-02-04T04:29:37;31.00;;;7.60;;
9160;SDS011;4615;51.340;8.288;2023-02-04T04:32:04;27.33;;;7.35;;
9160;SDS011;4615;51.340;8.288;2023-02-04T04:34:30;31.50;;;7.53;;
9160;SDS011;4615;51.340;8.288;2023-02-04T04:36:57;32.28;;;7.97;;
9160;SDS011;4615;51.340;8.288;2023-02-04T04:39:23;38.30;;;8.35;;
9160;SDS011;4615;51.340;8.288;2023-02-04T04:41:51;33.75;;;8.07;;
9160;SDS011;4615;51.340;8.288;2023-02-04T04:44:18;35.67;;;7.95;;
9160;SDS011;4615;51.340;8.288;2023-02-04T04:46:44;33.97;;;8.03;;
9160;SDS011;4615;51.340;8.288;2023-02-04T04:49:10;33.08;;;7.88;;
9160;SDS011;4615;51.340;8.288;2023-02-04T04:51:37;33.72;;;8.32;;
9160;SDS011;4615;51.340;8.288;2023-02-04T04:54:03;35.60;;;8.47;;
9160;SDS011;4615;51.340;8.288;2023-02-04T04:56:30;39.17;;;8.65;;
9160;SDS011;4615;51.340;8.288;2023-02-04T04:58:57;36.75;;;8.02;;
9160;SDS011;4615;51.340;8.288;2023-02-04T05:01:24;34.42;;;8.10;;
9160;SDS011;4615;51.340;8.288;2023-02-04T05:03:50;35.05;;;8.25;;
9160;SDS011;4615;51.340;8.288;2023-02-04T05:06:16;29.40;;;7.75;;
9160;SDS011;4615;51.340;8.288;2023-02-04T05:08:49;31.58;;;7.57;;
9160;SDS011;4615;51.340;8.288;2023-02-04T05:11:15;36.75;;;9.15;;
9160;SDS011;4615;51.340;8.288;2023-02-04T05:13:41;33.22;;;7.90;;
9160;SDS011;4615;51.340;8.288;2023-02-04T05:16:09;32.58;;;8.20;;
9160;SDS011;4615;51.340;8.288;2023-02-04T05:18:36;35.60;;;7.80;;
9160;SDS011;4615;51.340;8.288;2023-02-04T05:21:02;33.42;;;7.90;;
9160;SDS011;4615;51.340;8.288;2023-02-04T05:23:29;29.88;;;7.88;;
9160;SDS011;4615;51.340;8.288;2023-02-04T05:25:55;32.53;;;8.05;;
9160;SDS011;4615;51.340;8.288;2023-02-04T05:28:22;30.73;;;7.93;;
9160;SDS011;4615;51.340;8.288;2023-02-04T05:30:48;34.67;;;8.32;;
9160;SDS011;4615;51.340;8.288;2023-02-04T05:33:16;26.85;;;7.85;;
9160;SDS011;4615;51.340;8.288;2023-02-04T05:35:42;32.40;;;8.50;;
9160;SDS011;4615;51.340;8.288;2023-02-04T05:38:09;31.40;;;7.75;;
9160;SDS011;4615;51.340;8.288;2023-02-04T05:40:35;31.13;;;8.00;;
9160;SDS011;4615;51.340;8.288;2023-02-04T05:43:01;29.40;;;7.72;;
9160;SDS011;4615;51.340;8.288;2023-02-04T05:45:28;33.17;;;8.48;;
9160;SDS011;4615;51.340;8.288;2023-02-04T05:47:55;31.45;;;7.93;;
9160;SDS011;4615;51.340;8.288;2023-02-04T05:50:22;29.63;;;8.32;;
9160;SDS011;4615;51.340;8.288;2023-02-04T05:52:49;28.92;;;7.93;;
9160;SDS011;4615;51.340;8.288;2023-02-04T05:55:15;30.58;;;8.10;;
9160;SDS011;4615;51.340;8.288;2023-02-04T05:57:42;31.17;;;8.13;;
9160;SDS011;4615;51.340;8.288;2023-02-04T06:00:10;34.95;;;9.15;;
9160;SDS011;4615;51.340;8.288;2023-02-04T06:02:36;35.23;;;8.50;;
9160;SDS011;4615;51.340;8.288;2023-02-04T06:05:03;31.88;;;8.45;;
9160;SDS011;4615;51.340;8.288;2023-02-04T06:07:30;35.63;;;8.68;;
9160;SDS011;4615;51.340;8.288;2023-02-04T06:09:57;29.98;;;7.78;;
9160;SDS011;4615;51.340;8.288;2023-02-04T06:12:23;30.70;;;7.70;;
9160;SDS011;4615;51.340;8.288;2023-02-04T06:14:50;32.08;;;8.38;;
9160;SDS011;4615;51.340;8.288;2023-02-04T06:17:16;25.42;;;8.00;;
9160;SDS011;4615;51.340;8.288;2023-02-04T06:19:42;28.17;;;8.67;;
9160;SDS011;4615;51.340;8.288;2023-02-04T06:22:09;30.08;;;8.23;;
9160;SDS011;4615;51.340;8.288;2023-02-04T06:24:37;33.63;;;8.90;;
9160;SDS011;4615;51.340;8.288;2023-02-04T06:27:03;30.63;;;8.40;;
9160;SDS011;4615;51.340;8.288;2023-02-04T06:29:30;24.80;;;7.68;;
9160;SDS011;4615;51.340;8.288;2023-02-04T06:31:56;33.90;;;8.20;;
9160;SDS011;4615;51.340;8.288;2023-02-04T06:34:23;31.52;;;8.15;;
9160;SDS011;4615;51.340;8.288;2023-02-04T06:36:49;31.17;;;8.00;;
9160;SDS011;4615;51.340;8.288;2023-02-04T06:39:15;25.43;;;7.83;;
9160;SDS011;4615;51.340;8.288;2023-02-04T06:41:43;26.35;;;8.00;;
9160;SDS011;4615;51.340;8.288;2023-02-04T06:44:10;32.08;;;8.40;;
9160;SDS011;4615;51.340;8.288;2023-02-04T06:46:36;29.23;;;7.93;;
9160;SDS011;4615;51.340;8.288;2023-02-04T06:49:02;27.25;;;7.85;;
9160;SDS011;4615;51.340;8.288;2023-02-04T06:51:29;29.20;;;8.15;;
9160;SDS011;4615;51.340;8.288;2023-02-04T06:53:56;29.17;;;8.15;;
9160;SDS011;4615;51.340;8.288;2023-02-04T06:56:23;32.45;;;8.50;;
9160;SDS011;4615;51.340;8.288;2023-02-04T06:58:52;32.85;;;8.07;;
9160;SDS011;4615;51.340;8.288;2023-02-04T07:01:18;28.20;;;8.45;;
9160;SDS011;4615;51.340;8.288;2023-02-04T07:03:45;30.55;;;8.68;;
9160;SDS011;4615;51.340;8.288;2023-02-04T07:06:11;28.13;;;8.38;;
9160;SDS011;4615;51.340;8.288;2023-02-04T07:08:37;27.50;;;8.23;;
9160;SDS011;4615;51.340;8.288;2023-02-04T07:11:04;29.40;;;7.82;;
9160;SDS011;4615;51.340;8.288;2023-02-04T07:13:30;27.05;;;7.35;;
9160;SDS011;4615;51.340;8.288;2023-02-04T07:15:58;23.33;;;7.20;;
9160;SDS011;4615;51.340;8.288;2023-02-04T07:18:24;27.30;;;7.73;;
9160;SDS011;4615;51.340;8.288;2023-02-04T07:20:51;31.17;;;7.97;;
9160;SDS011;4615;51.340;8.288;2023-02-04T07:23:17;27.73;;;7.40;;
9160;SDS011;4615;51.340;8.288;2023-02-04T07:25:44;28.27;;;7.90;;
9160;SDS011;4615;51.340;8.288;2023-02-04T07:28:12;31.23;;;8.07;;
9160;SDS011;4615;51.340;8.288;2023-02-04T07:30:38;31.75;;;8.23;;
9160;SDS011;4615;51.340;8.288;2023-02-04T07:33:06;24.73;;;7.00;;
9160;SDS011;4615;51.340;8.288;2023-02-04T07:35:32;29.75;;;7.70;;
9160;SDS011;4615;51.340;8.288;2023-02-04T07:37:59;22.83;;;6.57;;
9160;SDS011;4615;51.340;8.288;2023-02-04T07:40:25;27.40;;;6.60;;
9160;SDS011;4615;51.340;8.288;2023-02-04T07:42:51;24.42;;;7.03;;
9160;SDS011;4615;51.340;8.288;2023-02-04T07:45:18;26.50;;;7.40;;
9160;SDS011;4615;51.340;8.288;2023-02-04T07:47:44;27.30;;;7.57;;
9160;SDS011;4615;51.340;8.288;2023-02-04T07:50:12;28.13;;;7.60;;
9160;SDS011;4615;51.340;8.288;2023-02-04T07:52:38;28.98;;;7.28;;
9160;SDS011;4615;51.340;8.288;2023-02-04T07:55:05;26.83;;;7.20;;
9160;SDS011;4615;51.340;8.288;2023-02-04T07:57:31;25.20;;;6.72;;
9160;SDS011;4615;51.340;8.288;2023-02-04T07:59:58;27.15;;;7.30;;
9160;SDS011;4615;51.340;8.288;2023-02-04T08:02:24;24.38;;;6.65;;
9160;SDS011;4615;51.340;8.288;2023-02-04T08:04:51;26.30;;;6.57;;
9160;SDS011;4615;51.340;8.288;2023-02-04T08:07:19;24.20;;;6.70;;
9160;SDS011;4615;51.340;8.288;2023-02-04T08:09:45;26.23;;;7.07;;
9160;SDS011;4615;51.340;8.288;2023-02-04T08:12:11;23.20;;;6.60;;
9160;SDS011;4615;51.340;8.288;2023-02-04T08:14:38;25.83;;;6.47;;
9160;SDS011;4615;51.340;8.288;2023-02-04T08:17:04;25.30;;;7.20;;
9160;SDS011;4615;51.340;8.288;2023-02-04T08:19:30;26.83;;;7.10;;
9160;SDS011;4615;51.340;8.288;2023-02-04T08:21:57;27.55;;;7.20;;
9160;SDS011;4615;51.340;8.288;2023-02-04T08:24:25;28.67;;;6.97;;
9160;SDS011;4615;51.340;8.288;2023-02-04T08:26:51;28.10;;;6.90;;
9160;SDS011;4615;51.340;8.288;2023-02-04T08:29:17;28.42;;;6.85;;
9160;SDS011;4615;51.340;8.288;2023-02-04T08:31:44;25.85;;;7.35;;
9160;SDS011;4615;51.340;8.288;2023-02-04T08:34:11;23.95;;;6.38;;
9160;SDS011;4615;51.340;8.288;2023-02-04T08:36:38;25.27;;;6.90;;
9160;SDS011;4615;51.340;8.288;2023-02-04T08:39:04;22.95;;;6.80;;
9160;SDS011;4615;51.340;8.288;2023-02-04T08:41:32;26.73;;;7.85;;
9160;SDS011;4615;51.340;8.288;2023-02-04T08:43:58;28.70;;;7.90;;
9160;SDS011;4615;51.340;8.288;2023-02-04T08:46:25;24.70;;;6.72;;
9160;SDS011;4615;51.340;8.288;2023-02-04T08:48:51;23.40;;;6.80;;
9160;SDS011;4615;51.340;8.288;2023-02-04T08:51:17;25.13;;;7.67;;
9160;SDS011;4615;51.340;8.288;2023-02-04T08:53:44;27.33;;;7.72;;
9160;SDS011;4615;51.340;8.288;2023-02-04T08:56:10;28.55;;;8.32;;
9160;SDS011;4615;51.340;8.288;2023-02-04T08:58:42;27.60;;;8.18;;
9160;SDS011;4615;51.340;8.288;2023-02-04T09:01:08;25.95;;;7.68;;
9160;SDS011;4615;51.340;8.288;2023-02-04T09:03:35;22.02;;;7.03;;
9160;SDS011;4615;51.340;8.288;2023-02-04T09:06:02;24.77;;;7.35;;
9160;SDS011;4615;51.340;8.288;2023-02-04T09:08:28;26.00;;;7.43;;
9160;SDS011;4615;51.340;8.288;2023-02-04T09:10:54;25.40;;;7.22;;
9160;SDS011;4615;51.340;8.288;2023-02-04T09:13:21;24.92;;;7.50;;
9160;SDS011;4615;51.340;8.288;2023-02-04T09:15:48;26.65;;;6.93;;
9160;SDS011;4615;51.340;8.288;2023-02-04T09:18:16;26.10;;;7.13;;
9160;SDS011;4615;51.340;8.288;2023-02-04T09:20:46;23.50;;;6.37;;
9160;SDS011;4615;51.340;8.288;2023-02-04T09:23:12;24.05;;;6.18;;
9160;SDS011;4615;51.340;8.288;2023-02-04T09:25:39;22.70;;;6.85;;
9160;SDS011;4615;51.340;8.288;2023-02-04T09:28:05;22.27;;;6.40;;
9160;SDS011;4615;51.340;8.288;2023-02-04T09:30:34;26.97;;;7.57;;
9160;SDS011;4615;51.340;8.288;2023-02-04T09:33:01;28.65;;;6.88;;
9160;SDS011;4615;51.340;8.288;2023-02-04T09:35:28;29.13;;;8.93;;
9160;SDS011;4615;51.340;8.288;2023-02-04T09:37:54;28.70;;;7.05;;
9160;SDS011;4615;51.340;8.288;2023-02-04T09:40:21;24.10;;;7.90;;
9160;SDS011;4615;51.340;8.288;2023-02-04T09:42:47;26.02;;;7.68;;
9160;SDS011;4615;51.340;8.288;2023-02-04T09:45:14;29.17;;;9.52;;
9160;SDS011;4615;51.340;8.288;2023-02-04T09:47:42;28.10;;;8.30;;
9160;SDS011;4615;51.340;8.288;2023-02-04T09:50:11;24.02;;;7.70;;
9160;SDS011;4615;51.340;8.288;2023-02-04T09:52:39;25.58;;;7.70;;
9160;SDS011;4615;51.340;8.288;2023-02-04T09:55:07;21.40;;;6.82;;
9160;SDS011;4615;51.340;8.288;2023-02-04T09:57:34;23.60;;;6.70;;
9160;SDS011;4615;51.340;8.288;2023-02-04T10:00:00;25.63;;;6.97;;
9160;SDS011;4615;51.340;8.288;2023-02-04T10:02:27;25.90;;;6.95;;
9160;SDS011;4615;51.340;8.288;2023-02-04T10:04:54;25.05;;;7.30;;
9160;SDS011;4615;51.340;8.288;2023-02-04T10:07:23;24.63;;;6.95;;
9160;SDS011;4615;51.340;8.288;2023-02-04T10:09:51;29.77;;;7.03;;
9160;SDS011;4615;51.340;8.288;2023-02-04T10:12:18;27.95;;;7.15;;
9160;SDS011;4615;51.340;8.288;2023-02-04T10:14:45;28.08;;;7.63;;
9160;SDS011;4615;51.340;8.288;2023-02-04T10:17:11;25.52;;;7.47;;
9160;SDS011;4615;51.340;8.288;2023-02-04T10:19:40;25.90;;;6.65;;
9160;SDS011;4615;51.340;8.288;2023-02-04T10:22:09;22.97;;;7.20;;
9160;SDS011;4615;51.340;8.288;2023-02-04T10:24:40;25.25;;;6.70;;
9160;SDS011;4615;51.340;8.288;2023-02-04T10:27:07;29.40;;;7.30;;
9160;SDS011;4615;51.340;8.288;2023-02-04T10:29:33;27.63;;;7.07;;
9160;SDS011;4615;51.340;8.288;2023-02-04T10:32:00;24.13;;;6.90;;
9160;SDS011;4615;51.340;8.288;2023-02-04T10:34:31;26.23;;;7.07;;
9160;SDS011;4615;51.340;8.288;2023-02-04T10:36:58;22.42;;;6.97;;
9160;SDS011;4615;51.340;8.288;2023-02-04T10:39:26;26.75;;;6.82;;
9160;SDS011;4615;51.340;8.288;2023-02-04T10:41:54;24.52;;;6.80;;
9160;SDS011;4615;51.340;8.288;2023-02-04T10:44:24;26.63;;;7.03;;
9160;SDS011;4615;51.340;8.288;2023-02-04T10:46:57;27.80;;;7.20;;
9160;SDS011;4615;51.340;8.288;2023-02-04T10:49:23;25.05;;;7.03;;
9160;SDS011;4615;51.340;8.288;2023-02-04T10:51:50;22.17;;;6.07;;
9160;SDS011;4615;51.340;8.288;2023-02-04T10:54:18;26.95;;;6.95;;
9160;SDS011;4615;51.340;8.288;2023-02-04T10:56:57;25.70;;;6.90;;
9160;SDS011;4615;51.340;8.288;2023-02-04T10:59:24;29.00;;;7.55;;
9160;SDS011;4615;51.340;8.288;2023-02-04T11:01:52;26.02;;;7.53;;
9160;SDS011;4615;51.340;8.288;2023-02-04T11:04:19;25.65;;;6.57;;
9160;SDS011;4615;51.340;8.288;2023-02-04T11:06:46;23.17;;;6.78;;
9160;SDS011;4615;51.340;8.288;2023-02-04T11:09:12;22.85;;;6.88;;
9160;SDS011;4615;51.340;8.288;2023-02-04T11:11:44;25.05;;;6.80;;
9160;SDS011;4615;51.340;8.288;2023-02-04T11:14:21;26.42;;;6.60;;
9160;SDS011;4615;51.340;8.288;2023-02-04T11:16:50;27.97;;;7.30;;
9160;SDS011;4615;51.340;8.288;2023-02-04T11:19:29;28.58;;;6.78;;
9160;SDS011;4615;51.340;8.288;2023-02-04T11:22:03;28.73;;;6.97;;
9160;SDS011;4615;51.340;8.288;2023-02-04T11:24:31;27.00;;;6.78;;
9160;SDS011;4615;51.340;8.288;2023-02-04T11:27:04;26.73;;;7.25;;
9160;SDS011;4615;51.340;8.288;2023-02-04T11:29:32;25.33;;;7.27;;
9160;SDS011;4615;51.340;8.288;2023-02-04T11:32:03;24.95;;;7.00;;
9160;SDS011;4615;51.340;8.288;2023-02-04T11:34:31;26.50;;;6.82;;
9160;SDS011;4615;51.340;8.288;2023-02-04T11:37:09;23.40;;;6.85;;
9160;SDS011;4615;51.340;8.288;2023-02-04T11:39:38;24.20;;;6.63;;
9160;SDS011;4615;51.340;8.288;2023-02-04T11:42:09;25.45;;;6.45;;
9160;SDS011;4615;51.340;8.288;2023-02-04T11:44:41;22.40;;;6.53;;
9160;SDS011;4615;51.340;8.288;2023-02-04T11:47:07;24.20;;;6.70;;
9160;SDS011;4615;51.340;8.288;2023-02-04T11:49:34;24.20;;;6.63;;
9160;SDS011;4615;51.340;8.288;2023-02-04T11:52:04;25.80;;;6.13;;
9160;SDS011;4615;51.340;8.288;2023-02-04T11:54:32;21.70;;;5.97;;
9160;SDS011;4615;51.340;8.288;2023-02-04T11:56:59;21.50;;;5.93;;
9160;SDS011;4615;51.340;8.288;2023-02-04T11:59:26;23.88;;;6.82;;
9160;SDS011;4615;51.340;8.288;2023-02-04T12:02:03;22.08;;;6.22;;
9160;SDS011;4615;51.340;8.288;2023-02-04T12:04:29;24.87;;;6.60;;
9160;SDS011;4615;51.340;8.288;2023-02-04T12:06:56;23.88;;;5.93;;
9160;SDS011;4615;51.340;8.288;2023-02-04T12:09:24;22.17;;;5.78;;
9160;SDS011;4615;51.340;8.288;2023-02-04T12:11:50;19.83;;;5.78;;
9160;SDS011;4615;51.340;8.288;2023-02-04T12:14:17;25.58;;;6.25;;
9160;SDS011;4615;51.340;8.288;2023-02-04T12:16:44;21.50;;;6.20;;
9160;SDS011;4615;51.340;8.288;2023-02-04T12:19:12;22.52;;;6.28;;
9160;SDS011;4615;51.340;8.288;2023-02-04T12:21:38;22.17;;;5.70;;
9160;SDS011;4615;51.340;8.288;2023-02-04T12:24:05;21.83;;;6.50;;
9160;SDS011;4615;51.340;8.288;2023-02-04T12:26:31;19.97;;;5.73;;
9160;SDS011;4615;51.340;8.288;2023-02-04T12:28:58;21.05;;;5.85;;
9160;SDS011;4615;51.340;8.288;2023-02-04T12:31:27;21.90;;;5.73;;
9160;SDS011;4615;51.340;8.288;2023-02-04T12:33:53;18.80;;;5.30;;
9160;SDS011;4615;51.340;8.288;2023-02-04T12:36:21;20.00;;;5.45;;
9160;SDS011;4615;51.340;8.288;2023-02-04T12:38:48;17.95;;;5.60;;
9160;SDS011;4615;51.340;8.288;2023-02-04T12:41:14;17.00;;;5.50;;
9160;SDS011;4615;51.340;8.288;2023-02-04T12:43:42;25.00;;;5.80;;
9160;SDS011;4615;51.340;8.288;2023-02-04T12:46:09;20.47;;;4.83;;
9160;SDS011;4615;51.340;8.288;2023-02-04T12:48:35;15.98;;;4.57;;
9160;SDS011;4615;51.340;8.288;2023-02-04T12:51:05;17.67;;;4.93;;
9160;SDS011;4615;51.340;8.288;2023-02-04T12:53:32;14.27;;;4.53;;
9160;SDS011;4615;51.340;8.288;2023-02-04T12:55:59;19.42;;;5.43;;
9160;SDS011;4615;51.340;8.288;2023-02-04T12:58:25;16.73;;;5.60;;
9160;SDS011;4615;51.340;8.288;2023-02-04T13:00:52;16.80;;;5.28;;
9160;SDS011;4615;51.340;8.288;2023-02-04T13:03:18;19.00;;;5.03;;
9160;SDS011;4615;51.340;8.288;2023-02-04T13:05:45;15.93;;;4.88;;
9160;SDS011;4615;51.340;8.288;2023-02-04T13:08:11;20.63;;;5.70;;
9160;SDS011;4615;51.340;8.288;2023-02-04T13:10:39;17.77;;;5.45;;
9160;SDS011;4615;51.340;8.288;2023-02-04T13:13:05;21.80;;;5.57;;
9160;SDS011;4615;51.340;8.288;2023-02-04T13:15:32;17.98;;;5.68;;
9160;SDS011;4615;51.340;8.288;2023-02-04T13:17:58;17.07;;;5.23;;
9160;SDS011;4615;51.340;8.288;2023-02-04T13:20:24;17.65;;;5.00;;
9160;SDS011;4615;51.340;8.288;2023-02-04T13:22:51;19.85;;;5.45;;
9160;SDS011;4615;51.340;8.288;2023-02-04T13:25:17;17.25;;;5.03;;
9160;SDS011;4615;51.340;8.288;2023-02-04T13:27:45;18.40;;;5.05;;
9160;SDS011;4615;51.340;8.288;2023-02-04T13:30:12;18.45;;;5.25;;
9160;SDS011;4615;51.340;8.288;2023-02-04T13:32:39;16.23;;;5.07;;
9160;SDS011;4615;51.340;8.288;2023-02-04T13:35:06;18.37;;;5.50;;
9160;SDS011;4615;51.340;8.288;2023-02-04T13:37:32;16.63;;;4.63;;
9160;SDS011;4615;51.340;8.288;2023-02-04T13:39:59;17.92;;;4.88;;
9160;SDS011;4615;51.340;8.288;2023-02-04T13:42:25;19.17;;;5.07;;
9160;SDS011;4615;51.340;8.288;2023-02-04T13:44:53;18.58;;;4.88;;
9160;SDS011;4615;51.340;8.288;2023-02-04T13:47:19;17.65;;;4.55;;
9160;SDS011;4615;51.340;8.288;2023-02-04T13:49:46;17.17;;;4.95;;
9160;SDS011;4615;51.340;8.288;2023-02-04T13:52:12;17.95;;;4.78;;
9160;SDS011;4615;51.340;8.288;2023-02-04T13:54:42;15.55;;;4.90;;
9160;SDS011;4615;51.340;8.288;2023-02-04T13:57:08;17.77;;;4.80;;
9160;SDS011;4615;51.340;8.288;2023-02-04T13:59:35;18.98;;;4.90;;
9160;SDS011;4615;51.340;8.288;2023-02-04T14:02:02;16.58;;;4.82;;
9160;SDS011;4615;51.340;8.288;2023-02-04T14:04:29;19.08;;;5.40;;
9160;SDS011;4615;51.340;8.288;2023-02-04T14:06:55;15.98;;;5.07;;
9160;SDS011;4615;51.340;8.288;2023-02-04T14:09:22;19.95;;;4.97;;
9160;SDS011;4615;51.340;8.288;2023-02-04T14:11:49;16.33;;;5.20;;
9160;SDS011;4615;51.340;8.288;2023-02-04T14:14:15;18.67;;;7.30;;
9160;SDS011;4615;51.340;8.288;2023-02-04T14:16:42;17.48;;;5.25;;
9160;SDS011;4615;51.340;8.288;2023-02-04T14:19:09;19.45;;;5.07;;
9160;SDS011;4615;51.340;8.288;2023-02-04T14:21:36;18.67;;;4.88;;
9160;SDS011;4615;51.340;8.288;2023-02-04T14:24:03;12.80;;;4.68;;
9160;SDS011;4615;51.340;8.288;2023-02-04T14:26:29;15.60;;;4.65;;
9160;SDS011;4615;51.340;8.288;2023-02-04T14:28:56;18.05;;;4.90;;
9160;SDS011;4615;51.340;8.288;2023-02-04T14:31:22;14.48;;;4.45;;
9160;SDS011;4615;51.340;8.288;2023-02-04T14:33:49;16.80;;;4.97;;
9160;SDS011;4615;51.340;8.288;2023-02-04T14:36:16;19.25;;;4.97;;
9160;SDS011;4615;51.340;8.288;2023-02-04T14:38:43;16.17;;;4.90;;
9160;SDS011;4615;51.340;8.288;2023-02-04T14:41:09;16.90;;;4.85;;
9160;SDS011;4615;51.340;8.288;2023-02-04T14:43:40;14.52;;;4.63;;
9160;SDS011;4615;51.340;8.288;2023-02-04T14:46:06;19.10;;;4.80;;
9160;SDS011;4615;51.340;8.288;2023-02-04T14:48:33;15.73;;;4.70;;
9160;SDS011;4615;51.340;8.288;2023-02-04T14:50:59;16.00;;;5.25;;
9160;SDS011;4615;51.340;8.288;2023-02-04T14:53:27;19.33;;;5.45;;
9160;SDS011;4615;51.340;8.288;2023-02-04T14:55:53;16.33;;;5.03;;
9160;SDS011;4615;51.340;8.288;2023-02-04T14:58:20;17.90;;;5.25;;
9160;SDS011;4615;51.340;8.288;2023-02-04T15:00:46;17.00;;;4.82;;
9160;SDS011;4615;51.340;8.288;2023-02-04T15:03:13;22.65;;;9.48;;